Time;durP1;ratioP1;P1;durP2;ratioP2;P2;SDS_P1;SDS_P2;PMS_P1;PMS_P2;Temp;Humidity;BMP_temperature;BMP_pressure;BME280_temperature;BME280_humidity;BME280_pressure;Samples;Min_cycle;Max_cycle;Signal;HPM_P1;HPM_P2
2022/01/15 00:02:23;;;;;;;29.35;17.25;;;0.90;84.10;;;;;;7368582;19;20475;-32
2022/01/15 00:04:53;;;;;;;25.83;16.90;;;0.90;84.40;;;;;;7365443;19;20128;-32
2022/01/15 00:07:22;;;;;;;34.13;17.35;;;0.90;84.20;;;;;;7370737;19;20120;-34
2022/01/15 00:09:52;;;;;;;28.75;17.27;;;0.80;84.10;;;;;;7368832;19;20143;-33
2022/01/15 00:12:24;;;;;;;23.05;15.95;;;0.80;84.10;;;;;;7366563;19;20246;-33
2022/01/15 00:14:54;;;;;;;28.20;17.10;;;0.80;84.30;;;;;;7375001;19;20642;-32
2022/01/15 00:17:46;;;;;;;30.08;17.20;;;0.70;84.30;;;;;;7370095;19;20166;-33
2022/01/15 00:20:19;;;;;;;32.40;18.42;;;0.70;84.40;;;;;;7370112;19;20140;-32
2022/01/15 00:22:49;;;;;;;28.25;17.48;;;0.70;84.50;;;;;;7370451;19;20136;-33
2022/01/15 00:25:21;;;;;;;24.95;16.25;;;0.70;84.70;;;;;;7373404;19;20142;-32
2022/01/15 00:27:53;;;;;;;25.98;16.25;;;0.70;85.10;;;;;;7371392;19;20189;-33
2022/01/15 00:30:26;;;;;;;27.63;18.08;;;0.70;85.00;;;;;;7368145;19;20135;-42
2022/01/15 00:32:56;;;;;;;32.35;17.33;;;0.60;85.80;;;;;;7375704;19;20139;-42
2022/01/15 00:35:28;;;;;;;24.50;16.38;;;0.70;85.10;;;;;;7372711;19;20818;-42
2022/01/15 00:37:58;;;;;;;26.92;17.15;;;0.70;84.90;;;;;;7370854;19;20135;-42
2022/01/15 00:40:28;;;;;;;31.73;17.83;;;0.70;84.70;;;;;;7368760;19;20135;-42
2022/01/15 00:43:00;;;;;;;27.48;16.70;;;0.70;84.80;;;;;;7371653;19;20146;-42
2022/01/15 00:45:32;;;;;;;22.88;16.85;;;0.60;84.80;;;;;;7366082;19;20496;-42
2022/01/15 00:48:02;;;;;;;30.90;16.35;;;0.60;84.60;;;;;;7372794;19;20492;-42
2022/01/15 00:50:32;;;;;;;27.52;15.02;;;0.60;84.60;;;;;;7372570;19;20206;-42
2022/01/15 00:53:02;;;;;;;22.88;14.80;;;0.60;84.50;;;;;;7367977;19;20586;-42
2022/01/15 00:55:33;;;;;;;22.95;14.23;;;0.60;84.70;;;;;;7366559;19;20136;-43
2022/01/15 00:58:05;;;;;;;20.63;13.25;;;0.60;84.90;;;;;;7375602;19;20473;-41
2022/01/15 01:00:35;;;;;;;20.05;14.32;;;0.50;85.10;;;;;;7371123;19;20130;-32
2022/01/15 01:03:07;;;;;;;18.10;13.60;;;0.60;84.70;;;;;;7368890;19;20136;-33
2022/01/15 01:05:37;;;;;;;21.17;13.50;;;0.60;84.70;;;;;;7374348;19;20131;-33
2022/01/15 01:08:07;;;;;;;23.10;14.57;;;0.60;84.60;;;;;;7367254;19;20684;-34
2022/01/15 01:20:01;;;;;;;22.90;13.48;;;0.60;84.10;;;;;;7365739;19;20207;-34
2022/01/15 01:24:38;;;;;;;22.67;13.27;;;0.50;84.40;;;;;;7369701;19;20139;-33
2022/01/15 01:27:15;;;;;;;19.35;12.52;;;0.50;84.10;;;;;;7371022;19;20737;-32
2022/01/15 01:35:18;;;;;;;19.35;12.85;;;0.50;83.90;;;;;;7370341;19;20180;-32
2022/01/15 01:37:51;;;;;;;22.50;12.90;;;0.50;83.70;;;;;;7373365;19;20131;-33
2022/01/15 01:40:27;;;;;;;22.58;14.00;;;0.50;84.20;;;;;;7366814;19;20130;-33
2022/01/15 01:43:07;;;;;;;21.55;12.68;;;0.40;84.40;;;;;;7364025;19;20135;-33
2022/01/15 01:45:44;;;;;;;29.75;17.40;;;0.40;84.50;;;;;;7366652;19;20129;-32
2022/01/15 01:48:14;;;;;;;24.17;15.90;;;0.40;85.90;;;;;;7361145;19;20210;-33
2022/01/15 01:50:46;;;;;;;28.30;17.38;;;0.50;85.80;;;;;;7369756;19;20127;-33
2022/01/15 01:53:15;;;;;;;26.45;16.77;;;0.50;85.10;;;;;;7368861;19;20502;-33
2022/01/15 01:55:45;;;;;;;19.83;13.93;;;0.50;85.10;;;;;;7365409;19;20139;-32
2022/01/15 01:58:14;;;;;;;20.77;14.18;;;0.50;85.00;;;;;;7363801;19;20128;-32
2022/01/15 02:00:46;;;;;;;16.80;12.85;;;0.50;84.70;;;;;;7365985;19;20139;-40
2022/01/15 02:03:19;;;;;;;20.88;13.73;;;0.40;84.60;;;;;;7368050;19;20142;-33
2022/01/15 02:05:51;;;;;;;25.70;12.02;;;0.40;84.70;;;;;;7373191;19;20222;-33
2022/01/15 02:08:21;;;;;;;25.15;14.35;;;0.40;84.80;;;;;;7366868;19;20135;-33
2022/01/15 02:10:50;;;;;;;21.70;13.27;;;0.40;84.90;;;;;;7360487;19;20174;-42
2022/01/15 02:13:22;;;;;;;30.58;14.73;;;0.30;85.40;;;;;;7363422;19;20831;-43
2022/01/15 02:15:54;;;;;;;21.30;13.63;;;0.30;84.70;;;;;;7364475;19;20143;-41
2022/01/15 02:18:23;;;;;;;22.35;14.15;;;0.30;84.30;;;;;;7365162;19;20533;-42
2022/01/15 02:23:32;;;;;;;19.90;13.60;;;0.30;84.80;;;;;;7367892;19;20127;-43
2022/01/15 02:23:53;;;;;;;21.92;14.55;;;0.30;85.00;;;;;;7363376;19;20783;-42
2022/01/15 02:26:24;;;;;;;31.92;16.10;;;0.30;84.90;;;;;;7366985;19;20123;-42
2022/01/15 02:28:56;;;;;;;23.10;14.07;;;0.30;85.20;;;;;;7367761;19;20127;-42
2022/01/15 02:31:27;;;;;;;22.83;13.82;;;0.30;83.80;;;;;;7368297;19;20190;-43
2022/01/15 02:34:04;;;;;;;21.17;14.15;;;0.30;84.20;;;;;;7367585;19;20182;-43
2022/01/15 02:36:38;;;;;;;23.40;14.90;;;0.20;83.90;;;;;;7369960;19;20609;-41
2022/01/15 02:39:08;;;;;;;24.48;14.10;;;0.20;84.10;;;;;;7367977;19;20127;-41
2022/01/15 02:41:41;;;;;;;22.13;15.35;;;0.30;84.80;;;;;;7374272;19;20137;-32
2022/01/15 02:44:16;;;;;;;22.35;15.35;;;0.30;84.30;;;;;;7380135;19;20128;-32
2022/01/15 02:49:29;;;;;;;22.00;15.00;;;0.20;84.40;;;;;;7376166;19;20502;-33
2022/01/15 02:52:01;;;;;;;23.73;14.60;;;0.20;84.00;;;;;;7374488;19;20178;-33
2022/01/15 02:54:30;;;;;;;24.13;15.43;;;0.20;83.70;;;;;;7368672;19;20131;-33
2022/01/15 02:57:04;;;;;;;26.13;16.90;;;0.10;84.00;;;;;;7370128;19;20124;-33
2022/01/15 02:59:34;;;;;;;23.83;14.50;;;0.10;84.10;;;;;;7373184;19;20585;-33
2022/01/15 03:02:04;;;;;;;23.58;14.57;;;0.10;84.10;;;;;;7366975;19;20127;-34
2022/01/15 03:04:36;;;;;;;25.92;12.95;;;0.10;84.30;;;;;;7376560;19;20199;-33
2022/01/15 03:07:09;;;;;;;21.25;13.50;;;0.00;84.50;;;;;;7367011;19;25941;-33
2022/01/15 03:09:40;;;;;;;20.55;14.02;;;0.00;84.70;;;;;;7374700;19;20127;-33
2022/01/15 03:12:11;;;;;;;30.13;15.27;;;0.00;84.70;;;;;;7366491;19;20143;-33
2022/01/15 03:14:42;;;;;;;23.52;13.85;;;0.00;84.30;;;;;;7372483;19;20162;-33
2022/01/15 03:17:14;;;;;;;16.83;12.98;;;0.00;84.40;;;;;;7368634;19;20749;-34
2022/01/15 03:19:44;;;;;;;19.23;13.27;;;-0.10;84.40;;;;;;7379102;19;20610;-33
2022/01/15 03:22:16;;;;;;;20.00;13.93;;;0.00;84.70;;;;;;7371526;19;20142;-33
2022/01/15 03:24:45;;;;;;;23.30;13.10;;;0.00;84.40;;;;;;7375853;19;20489;-33
2022/01/15 03:27:15;;;;;;;25.13;15.20;;;-0.10;84.70;;;;;;7372792;19;20136;-33
2022/01/15 03:29:45;;;;;;;18.83;12.38;;;-0.10;85.10;;;;;;7376064;19;20583;-32
2022/01/15 03:32:14;;;;;;;17.25;12.50;;;-0.10;84.90;;;;;;7371571;19;20194;-33
2022/01/15 03:34:44;;;;;;;18.67;13.23;;;-0.10;84.80;;;;;;7372462;19;20139;-33
2022/01/15 03:37:16;;;;;;;23.70;14.10;;;-0.10;85.00;;;;;;7370598;19;20479;-33
2022/01/15 03:39:46;;;;;;;20.02;12.40;;;0.00;84.90;;;;;;7376824;19;20571;-42
2022/01/15 03:42:15;;;;;;;19.92;12.80;;;0.00;84.30;;;;;;7369627;19;20767;-43
2022/01/15 03:44:47;;;;;;;21.45;12.93;;;0.00;84.30;;;;;;7374925;19;20147;-43
2022/01/15 03:47:17;;;;;;;26.02;13.73;;;-0.10;84.40;;;;;;7367702;19;21640;-42
2022/01/15 03:49:49;;;;;;;18.25;14.23;;;-0.10;85.20;;;;;;7368057;19;20143;-43
2022/01/15 03:52:22;;;;;;;26.48;15.45;;;0.00;85.30;;;;;;7369266;19;20854;-43
2022/01/15 03:54:51;;;;;;;19.10;12.10;;;0.00;84.80;;;;;;7374392;19;20162;-43
2022/01/15 03:57:26;;;;;;;16.95;12.02;;;0.00;84.60;;;;;;7366899;19;20159;-43
2022/01/15 03:59:55;;;;;;;19.15;13.38;;;0.00;84.40;;;;;;7374376;19;20132;-43
2022/01/15 04:02:25;;;;;;;28.42;14.73;;;-0.10;84.60;;;;;;7368536;19;20752;-43
2022/01/15 04:04:54;;;;;;;20.55;13.95;;;-0.10;85.00;;;;;;7376735;19;20505;-43
2022/01/15 04:07:26;;;;;;;16.95;12.65;;;-0.10;84.80;;;;;;7371292;19;20139;-43
2022/01/15 04:09:56;;;;;;;23.45;14.85;;;-0.10;84.70;;;;;;7374959;19;20131;-43
2022/01/15 04:12:25;;;;;;;21.13;12.20;;;-0.10;84.90;;;;;;7363578;19;20155;-42
2022/01/15 04:14:55;;;;;;;20.02;12.93;;;-0.10;84.50;;;;;;7370609;19;20127;-42
2022/01/15 04:17:25;;;;;;;20.58;13.57;;;-0.20;84.80;;;;;;7371877;19;20132;-43
2022/01/15 04:19:55;;;;;;;21.52;13.13;;;-0.20;85.00;;;;;;7371503;19;20254;-42
2022/01/15 04:22:28;;;;;;;20.88;13.43;;;-0.10;84.40;;;;;;7370544;19;20591;-42
2022/01/15 04:24:57;;;;;;;24.70;13.98;;;-0.20;84.40;;;;;;7372006;19;20605;-41
2022/01/15 04:27:27;;;;;;;19.23;13.63;;;-0.20;84.80;;;;;;7376630;19;20136;-42
2022/01/15 04:30:01;;;;;;;18.67;13.70;;;-0.10;84.60;;;;;;7367881;19;20215;-42
2022/01/15 04:32:31;;;;;;;22.40;14.38;;;-0.10;84.40;;;;;;7370966;19;20127;-42
2022/01/15 04:35:02;;;;;;;26.15;13.43;;;-0.20;84.40;;;;;;7372690;19;20195;-42
2022/01/15 04:37:39;;;;;;;21.70;13.00;;;-0.10;84.30;;;;;;7375377;19;20514;-40
2022/01/15 04:40:11;;;;;;;25.17;14.77;;;-0.20;84.60;;;;;;7370478;19;20222;-42
2022/01/15 04:42:41;;;;;;;17.48;12.52;;;-0.20;84.70;;;;;;7370095;19;20162;-42
2022/01/15 04:45:11;;;;;;;22.42;13.88;;;-0.20;84.80;;;;;;7368007;19;20797;-42
2022/01/15 04:47:42;;;;;;;26.55;15.10;;;-0.30;85.10;;;;;;7373805;19;20143;-41
2022/01/15 04:50:18;;;;;;;24.25;14.13;;;-0.30;85.50;;;;;;7367691;19;20132;-42
2022/01/15 04:52:50;;;;;;;21.17;13.10;;;-0.20;85.30;;;;;;7374561;19;21014;-42
2022/01/15 04:55:20;;;;;;;23.40;14.00;;;-0.30;84.90;;;;;;7369664;19;20124;-42
2022/01/15 04:57:49;;;;;;;18.23;13.20;;;-0.20;84.80;;;;;;7372157;19;20509;-42
2022/01/15 05:00:21;;;;;;;20.52;13.23;;;-0.20;84.20;;;;;;7376441;19;20610;-42
2022/01/15 05:02:50;;;;;;;19.52;13.20;;;-0.20;84.20;;;;;;7368509;19;20131;-42
2022/01/15 05:05:20;;;;;;;25.77;14.15;;;0.60;85.20;;;;;;7372865;19;20123;-42
2022/01/15 05:07:53;;;;;;;25.10;14.55;;;-0.30;84.60;;;;;;7373651;19;20610;-42
2022/01/15 05:10:27;;;;;;;26.58;14.35;;;0.40;85.10;;;;;;7368710;19;20195;-42
2022/01/15 05:13:00;;;;;;;20.25;12.90;;;-0.30;84.50;;;;;;7364733;19;20158;-42
2022/01/15 05:15:30;;;;;;;21.13;14.25;;;-0.30;85.20;;;;;;7370882;19;20512;-42
2022/01/15 05:17:59;;;;;;;18.20;13.02;;;-0.30;84.90;;;;;;7374034;19;20653;-42
2022/01/15 05:20:32;;;;;;;22.92;15.05;;;-0.30;84.80;;;;;;7368435;19;20128;-43
2022/01/15 05:23:04;;;;;;;22.92;14.02;;;-0.30;84.70;;;;;;7370282;19;20152;-43
2022/01/15 05:25:34;;;;;;;20.70;13.38;;;-0.30;84.00;;;;;;7372915;19;20507;-42
2022/01/15 05:28:03;;;;;;;21.73;14.52;;;-0.30;84.10;;;;;;7368088;19;20120;-42
2022/01/15 05:30:33;;;;;;;21.67;14.25;;;-0.30;84.20;;;;;;7367204;19;20465;-41
2022/01/15 05:33:03;;;;;;;26.23;13.25;;;-0.20;84.60;;;;;;7368431;19;20522;-43
2022/01/15 05:35:32;;;;;;;22.98;14.40;;;-0.30;84.10;;;;;;7370181;19;20606;-42
2022/01/15 05:38:04;;;;;;;21.38;13.88;;;-0.30;84.00;;;;;;7366943;19;20187;-42
2022/01/15 05:40:34;;;;;;;22.90;14.50;;;-0.30;84.00;;;;;;7369609;19;20170;-42
2022/01/15 05:43:03;;;;;;;15.63;12.00;;;-0.40;84.30;;;;;;7366885;19;20147;-43
2022/01/15 05:45:33;;;;;;;20.70;13.32;;;-0.40;84.50;;;;;;7370586;19;20132;-43
2022/01/15 05:48:03;;;;;;;20.95;14.35;;;-0.30;84.30;;;;;;7361586;19;20143;-41
2022/01/15 05:50:32;;;;;;;19.92;13.45;;;-0.30;84.30;;;;;;7368237;19;20644;-33
2022/01/15 05:53:04;;;;;;;20.27;13.88;;;-0.40;84.50;;;;;;7366916;19;20127;-33
2022/01/15 05:55:34;;;;;;;18.30;13.80;;;-0.40;84.40;;;;;;7370378;19;21155;-33
2022/01/15 05:58:09;;;;;;;21.80;14.27;;;-0.40;84.60;;;;;;7371573;19;20126;-33
2022/01/15 06:00:39;;;;;;;26.23;13.57;;;-0.50;85.90;;;;;;7367102;19;20158;-33
2022/01/15 06:03:08;;;;;;;24.30;12.60;;;-0.50;85.30;;;;;;7369022;19;20128;-33
2022/01/15 06:05:38;;;;;;;19.98;13.35;;;-0.50;85.70;;;;;;7372761;19;20143;-33
2022/01/15 06:08:10;;;;;;;23.80;14.48;;;-0.50;84.70;;;;;;7368952;19;20131;-33
2022/01/15 06:10:40;;;;;;;20.67;13.35;;;-0.50;84.90;;;;;;7367350;19;20501;-33
2022/01/15 06:13:10;;;;;;;22.10;14.00;;;-0.40;84.80;;;;;;7374697;19;20509;-33
2022/01/15 06:15:39;;;;;;;22.67;13.55;;;-0.50;84.60;;;;;;7358485;19;20139;-33
2022/01/15 06:18:09;;;;;;;21.23;14.43;;;-0.60;84.80;;;;;;7360190;19;20134;-33
2022/01/15 06:20:39;;;;;;;24.15;14.07;;;-0.60;85.10;;;;;;7361963;19;20496;-42
2022/01/15 06:23:11;;;;;;;21.40;13.55;;;-0.60;84.90;;;;;;7358719;19;20277;-42
2022/01/15 06:25:45;;;;;;;24.95;14.95;;;-0.50;84.60;;;;;;7362633;19;20240;-41
2022/01/15 06:28:15;;;;;;;21.02;13.85;;;-0.60;84.90;;;;;;7362911;19;20139;-42
2022/01/15 06:30:44;;;;;;;25.80;16.38;;;-0.60;85.40;;;;;;7361551;19;20367;-42
2022/01/15 06:33:13;;;;;;;23.88;14.60;;;-0.50;85.10;;;;;;7365193;19;20135;-41
2022/01/15 06:35:46;;;;;;;21.83;14.95;;;-0.50;84.70;;;;;;7368156;19;21329;-41
2022/01/15 06:38:18;;;;;;;22.45;13.25;;;-0.50;84.10;;;;;;7377026;19;20139;-41
2022/01/15 06:40:48;;;;;;;27.02;15.35;;;-0.50;83.80;;;;;;7372889;19;20131;-42
2022/01/15 06:43:17;;;;;;;23.35;14.95;;;-0.50;84.00;;;;;;7374375;19;20119;-43
2022/01/15 06:45:47;;;;;;;23.40;13.77;;;-0.50;84.00;;;;;;7372784;19;20135;-43
2022/01/15 06:48:18;;;;;;;20.38;14.02;;;-0.60;83.90;;;;;;7379482;19;20162;-43
2022/01/15 06:50:50;;;;;;;23.48;14.25;;;-0.70;84.40;;;;;;7372024;19;20136;-43
2022/01/15 06:53:22;;;;;;;20.42;14.10;;;-0.70;84.20;;;;;;7369276;19;20136;-43
2022/01/15 06:55:54;;;;;;;21.08;14.18;;;-0.70;84.10;;;;;;7367125;19;20720;-43
2022/01/15 06:58:25;;;;;;;22.35;15.65;;;-0.60;84.10;;;;;;7371981;19;20134;-42
2022/01/15 07:00:57;;;;;;;19.42;14.30;;;-0.60;84.10;;;;;;7369277;19;20590;-42
2022/01/15 07:03:27;;;;;;;23.27;12.38;;;-0.60;84.20;;;;;;7366307;19;20606;-43
2022/01/15 07:05:56;;;;;;;22.73;14.27;;;-0.60;84.00;;;;;;7365575;19;20136;-44
2022/01/15 07:08:28;;;;;;;20.13;13.43;;;-0.60;83.70;;;;;;7360166;19;20168;-42
2022/01/15 07:10:58;;;;;;;18.50;13.48;;;-0.60;84.00;;;;;;7365924;19;20151;-43
2022/01/15 07:13:30;;;;;;;22.52;13.35;;;-0.60;84.10;;;;;;7364873;19;20119;-42
2022/01/15 07:16:00;;;;;;;18.88;12.38;;;-0.60;84.10;;;;;;7358606;19;20124;-42
2022/01/15 07:18:29;;;;;;;19.17;13.50;;;-0.60;84.00;;;;;;7373485;19;20132;-42
2022/01/15 07:20:59;;;;;;;24.65;13.27;;;-0.60;84.00;;;;;;7359479;19;20162;-43
2022/01/15 07:23:31;;;;;;;23.33;14.97;;;-0.70;83.50;;;;;;7343657;19;20371;-42
2022/01/15 07:26:01;;;;;;;19.15;13.63;;;-0.60;83.40;;;;;;7347937;19;20386;-43
2022/01/15 07:28:31;;;;;;;21.00;15.30;;;-0.40;83.70;;;;;;7359148;19;20454;-43
2022/01/15 07:31:00;;;;;;;18.63;13.70;;;-0.50;83.40;;;;;;7366090;19;20164;-43
2022/01/15 07:33:30;;;;;;;18.08;12.45;;;-0.60;83.60;;;;;;7367921;19;20152;-42
2022/01/15 07:36:00;;;;;;;20.38;12.35;;;-0.60;83.80;;;;;;7369490;19;20472;-43
2022/01/15 07:38:32;;;;;;;19.20;12.82;;;-0.60;83.60;;;;;;7360601;19;20629;-43
2022/01/15 07:41:01;;;;;;;17.33;13.07;;;-0.50;83.40;;;;;;7359960;19;20135;-43
2022/01/15 07:43:31;;;;;;;21.02;13.65;;;-0.50;83.50;;;;;;7361466;19;20737;-42
2022/01/15 07:46:01;;;;;;;18.95;13.93;;;-0.50;83.10;;;;;;7356404;19;20128;-40
2022/01/15 07:48:30;;;;;;;20.50;13.35;;;-0.30;82.90;;;;;;7375287;19;20151;-43
2022/01/15 07:51:00;;;;;;;19.65;12.15;;;-0.50;83.00;;;;;;7371486;19;20874;-34
2022/01/15 07:53:32;;;;;;;21.77;12.52;;;-0.50;83.20;;;;;;7362066;19;20135;-33
2022/01/15 07:56:04;;;;;;;22.40;16.00;;;-0.50;83.10;;;;;;7372230;19;20366;-33
2022/01/15 07:58:34;;;;;;;17.85;13.18;;;-0.40;83.10;;;;;;7372560;19;20151;-32
2022/01/15 08:01:03;;;;;;;21.58;12.60;;;-0.40;83.10;;;;;;7361588;19;20883;-32
2022/01/15 08:03:33;;;;;;;18.10;13.00;;;-0.50;83.00;;;;;;7364920;19;20136;-32
2022/01/15 08:06:03;;;;;;;16.13;11.88;;;-0.40;83.30;;;;;;7364918;19;20171;-36
2022/01/15 08:08:35;;;;;;;14.93;11.55;;;-0.40;83.10;;;;;;7368291;19;20135;-32
2022/01/15 08:11:05;;;;;;;17.88;11.35;;;-0.40;83.10;;;;;;7360441;19;20755;-32
2022/01/15 08:13:35;;;;;;;22.10;14.10;;;-0.40;84.10;;;;;;7364101;19;20123;-32
2022/01/15 08:16:08;;;;;;;18.00;12.20;;;-0.40;82.90;;;;;;7374157;19;20608;-32
2022/01/15 08:18:38;;;;;;;16.40;11.98;;;-0.30;83.30;;;;;;7368778;19;20136;-33
2022/01/15 08:21:09;;;;;;;19.80;13.63;;;-0.10;83.00;;;;;;7373297;19;20845;-33
2022/01/15 08:23:41;;;;;;;21.70;15.90;;;-0.20;82.80;;;;;;7367414;19;20375;-33
2022/01/15 08:26:10;;;;;;;22.15;14.73;;;-0.10;83.20;;;;;;7369183;19;20132;-33
2022/01/15 08:28:40;;;;;;;19.13;12.27;;;-0.10;82.60;;;;;;7375963;19;20191;-33
2022/01/15 08:31:10;;;;;;;21.05;14.35;;;-0.10;82.40;;;;;;7376226;19;20202;-42
2022/01/15 08:33:40;;;;;;;19.08;13.85;;;-0.10;82.20;;;;;;7373919;19;20135;-42
2022/01/15 08:36:10;;;;;;;24.63;13.48;;;0.00;82.50;;;;;;7366139;19;20688;-42
2022/01/15 08:38:42;;;;;;;21.83;14.73;;;0.00;82.30;;;;;;7358807;19;20621;-42
2022/01/15 08:41:13;;;;;;;20.02;13.80;;;0.80;83.20;;;;;;7370939;19;20135;-42
2022/01/15 08:43:43;;;;;;;21.20;15.00;;;0.20;82.30;;;;;;7374400;19;20227;-43
2022/01/15 08:46:13;;;;;;;23.05;15.05;;;0.20;82.10;;;;;;7367837;19;20146;-42
2022/01/15 08:48:45;;;;;;;26.08;17.08;;;0.20;81.90;;;;;;7373277;19;20047;-42
2022/01/15 08:51:15;;;;;;;24.45;17.13;;;0.30;81.50;;;;;;7367279;19;20151;-43
2022/01/15 08:53:48;;;;;;;32.90;17.25;;;0.40;81.30;;;;;;7372421;19;20136;-43
2022/01/15 08:56:17;;;;;;;23.73;16.50;;;0.20;81.90;;;;;;7362626;19;20132;-43
2022/01/15 08:58:49;;;;;;;24.83;15.95;;;0.40;82.00;;;;;;7372498;19;20140;-43
2022/01/15 09:01:19;;;;;;;20.45;15.07;;;0.40;81.10;;;;;;7365485;19;20142;-43
2022/01/15 09:03:48;;;;;;;22.73;15.32;;;0.40;81.50;;;;;;7367074;19;20226;-44
2022/01/15 09:06:18;;;;;;;22.48;16.27;;;0.60;81.20;;;;;;7365586;19;20136;-43
2022/01/15 09:08:52;;;;;;;21.27;15.15;;;0.70;80.90;;;;;;7371404;19;20127;-42
2022/01/15 09:11:25;;;;;;;27.35;16.05;;;0.80;81.00;;;;;;7353435;19;20665;-43
2022/01/15 09:13:55;;;;;;;25.38;16.40;;;1.00;80.30;;;;;;7367585;19;20371;-43
2022/01/15 09:16:24;;;;;;;27.23;16.95;;;2.00;79.60;;;;;;7374247;19;20376;-44
2022/01/15 09:18:56;;;;;;;18.52;14.90;;;3.60;72.10;;;;;;7369483;19;20370;-43
2022/01/15 09:21:26;;;;;;;18.08;13.98;;;5.30;67.50;;;;;;7364929;19;20600;-43
2022/01/15 09:23:58;;;;;;;20.38;15.52;;;6.70;59.20;;;;;;7370011;19;20414;-43
2022/01/15 09:26:46;;;;;;;20.70;15.02;;;8.20;56.20;;;;;;7361607;19;20374;-45
2022/01/15 09:32:01;;;;;;;20.40;15.70;;;10.40;49.50;;;;;;7356206;19;20415;-35
2022/01/15 09:34:32;;;;;;;17.00;14.80;;;10.80;48.10;;;;;;7348864;19;20375;-35
2022/01/15 09:37:01;;;;;;;17.13;15.30;;;11.20;47.60;;;;;;7360933;19;20403;-35
2022/01/15 09:39:34;;;;;;;18.67;13.93;;;11.70;45.80;;;;;;7364230;19;20387;-35
2022/01/15 09:42:04;;;;;;;20.00;15.70;;;12.10;44.30;;;;;;7358459;19;20384;-35
2022/01/15 09:44:36;;;;;;;20.17;15.93;;;12.10;43.90;;;;;;7371478;19;20388;-33
2022/01/15 09:47:10;;;;;;;21.90;16.57;;;12.30;43.50;;;;;;7363429;19;20480;-35
2022/01/15 09:49:42;;;;;;;19.23;16.27;;;12.20;42.60;;;;;;7364554;19;20400;-33
2022/01/15 09:52:13;;;;;;;17.73;15.67;;;11.20;43.70;;;;;;7371651;19;20400;-33
2022/01/15 09:54:46;;;;;;;20.10;16.77;;;10.30;45.30;;;;;;7370799;19;20730;-32
2022/01/15 09:57:15;;;;;;;18.97;15.20;;;9.20;47.60;;;;;;7363792;19;21163;-33
2022/01/15 09:59:45;;;;;;;19.57;16.27;;;7.50;52.00;;;;;;7352503;19;20163;-42
2022/01/15 10:02:16;;;;;;;20.93;15.20;;;7.80;54.40;;;;;;7355575;19;25135;-43
2022/01/15 10:04:48;;;;;;;19.05;16.73;;;9.40;51.30;;;;;;7358710;19;20900;-42
2022/01/15 10:07:19;;;;;;;19.57;16.63;;;10.40;47.40;;;;;;7354609;19;25034;-44
2022/01/15 10:09:52;;;;;;;21.43;17.60;;;9.80;46.90;;;;;;7354112;19;25030;-44
2022/01/15 10:12:31;;;;;;;18.37;16.10;;;8.50;49.40;;;;;;7346426;19;25077;-44
2022/01/15 10:15:02;;;;;;;22.67;17.67;;;6.90;53.70;;;;;;7352905;19;24840;-45
2022/01/15 10:17:34;;;;;;;23.40;17.43;;;5.90;56.40;;;;;;7364504;19;20420;-44
2022/01/15 10:20:06;;;;;;;26.08;19.30;;;5.30;58.10;;;;;;7358822;19;20384;-46
2022/01/15 10:22:42;;;;;;;25.33;19.42;;;4.90;59.90;;;;;;7346097;19;20127;-44
2022/01/15 10:25:19;;;;;;;23.23;18.00;;;4.40;61.80;;;;;;7366678;19;20131;-44
2022/01/15 10:27:51;;;;;;;23.10;17.40;;;4.30;62.50;;;;;;7356343;19;20135;-44
2022/01/15 10:30:24;;;;;;;25.55;18.75;;;4.30;63.50;;;;;;7363723;19;20124;-43
2022/01/15 10:32:56;;;;;;;22.60;17.45;;;4.20;63.60;;;;;;7362779;19;20799;-42
2022/01/15 10:35:28;;;;;;;23.50;17.17;;;4.30;63.50;;;;;;7366980;19;20174;-42
2022/01/15 10:38:00;;;;;;;20.15;16.88;;;4.30;63.70;;;;;;7370849;19;20134;-41
2022/01/15 10:40:42;;;;;;;23.33;16.50;;;4.30;63.70;;;;;;7366980;19;20146;-42
2022/01/15 10:43:13;;;;;;;23.95;16.83;;;4.20;63.80;;;;;;7368760;19;20130;-44
2022/01/15 10:45:51;;;;;;;21.73;16.33;;;4.60;64.90;;;;;;7366156;19;20124;-43
2022/01/15 10:48:25;;;;;;;23.50;16.15;;;4.20;64.00;;;;;;7359670;19;20143;-42
2022/01/15 10:51:00;;;;;;;26.08;19.38;;;4.30;64.20;;;;;;7368398;19;20718;-43
2022/01/15 10:53:37;;;;;;;24.83;17.65;;;4.40;64.00;;;;;;7356454;19;20131;-43
2022/01/15 10:56:11;;;;;;;22.10;16.95;;;4.40;63.60;;;;;;7362443;19;20136;-43
2022/01/15 10:58:42;;;;;;;25.70;19.42;;;4.40;64.30;;;;;;7359906;19;20901;-43
2022/01/15 11:01:14;;;;;;;25.25;18.10;;;4.40;63.60;;;;;;7355714;19;20127;-43
2022/01/15 11:03:45;;;;;;;24.77;16.55;;;4.40;63.30;;;;;;7350686;19;20135;-43
2022/01/15 11:06:20;;;;;;;20.60;16.17;;;4.30;64.50;;;;;;7353499;19;20235;-43
2022/01/15 11:08:54;;;;;;;25.33;18.17;;;4.20;64.20;;;;;;7374160;19;20127;-43
2022/01/15 11:11:27;;;;;;;26.58;16.65;;;4.30;64.70;;;;;;7361046;19;20152;-43
2022/01/15 11:13:58;;;;;;;24.63;17.00;;;6.50;64.20;;;;;;7374321;19;20754;-41
2022/01/15 11:16:28;;;;;;;24.33;17.55;;;9.20;55.80;;;;;;7370950;19;20605;-42
2022/01/15 11:18:59;;;;;;;18.33;15.97;;;11.60;50.00;;;;;;7378148;19;20147;-42
2022/01/15 11:21:31;;;;;;;25.20;17.60;;;13.50;44.50;;;;;;7377191;19;20383;-42
2022/01/15 11:24:06;;;;;;;19.43;15.47;;;14.70;42.90;;;;;;7359385;19;20380;-43
2022/01/15 11:26:40;;;;;;;18.60;16.60;;;15.30;40.80;;;;;;7372018;19;20364;-43
2022/01/15 11:29:10;;;;;;;19.57;17.17;;;16.10;38.70;;;;;;7371258;19;20380;-43
2022/01/15 11:31:40;;;;;;;23.37;18.70;;;16.40;37.50;;;;;;7367588;19;20733;-44
2022/01/15 11:34:11;;;;;;;19.53;17.00;;;16.50;37.70;;;;;;7373382;19;20976;-44
2022/01/15 11:36:42;;;;;;;20.47;18.13;;;17.00;36.60;;;;;;7368234;19;20922;-43
2022/01/15 11:39:12;;;;;;;19.07;16.90;;;16.90;36.00;;;;;;7367748;19;20380;-44
2022/01/15 11:41:49;;;;;;;19.57;17.47;;;15.80;36.70;;;;;;7360627;19;20405;-44
2022/01/15 11:44:20;;;;;;;20.23;17.20;;;14.90;38.40;;;;;;7375644;19;20858;-44
2022/01/15 11:46:52;;;;;;;18.00;16.10;;;14.30;39.50;;;;;;7369340;19;20400;-44
2022/01/15 11:49:36;;;;;;;19.83;17.50;;;13.20;41.10;;;;;;7374178;19;20402;-44
2022/01/15 11:52:44;;;;;;;20.53;18.27;;;12.00;42.00;;;;;;7372554;19;20387;-43
2022/01/15 11:55:29;;;;;;;22.17;19.23;;;10.20;45.70;;;;;;7373045;19;20405;-44
2022/01/15 11:58:01;;;;;;;23.93;18.07;;;10.30;47.00;;;;;;7372499;19;20383;-44
2022/01/15 12:00:36;;;;;;;21.63;17.83;;;10.00;47.00;;;;;;7357320;19;20380;-44
2022/01/15 12:03:12;;;;;;;19.53;16.30;;;9.80;48.50;;;;;;7359906;19;20387;-44
2022/01/15 12:05:44;;;;;;;18.80;16.30;;;9.80;49.40;;;;;;7354288;19;20398;-41
2022/01/15 12:08:30;;;;;;;17.60;15.70;;;10.90;47.80;;;;;;7371208;19;20404;-42
2022/01/15 12:11:05;;;;;;;17.73;15.87;;;12.80;44.40;;;;;;7365488;19;20434;-42
2022/01/15 12:13:48;;;;;;;19.30;16.73;;;14.50;41.20;;;;;;7366921;19;20989;-42
2022/01/15 12:16:36;;;;;;;20.52;17.90;;;15.50;39.10;;;;;;7359079;19;20372;-43
2022/01/15 12:19:07;;;;;;;19.23;17.23;;;13.90;39.50;;;;;;7366151;19;20146;-43
2022/01/15 12:21:59;;;;;;;18.40;15.87;;;14.80;40.50;;;;;;7349939;19;20966;-44
2022/01/15 12:24:39;;;;;;;17.53;15.70;;;16.40;37.40;;;;;;7367181;19;20373;-44
2022/01/15 12:27:11;;;;;;;18.67;15.80;;;14.80;37.40;;;;;;7363030;19;20372;-44
2022/01/15 12:29:44;;;;;;;24.53;17.33;;;12.60;41.10;;;;;;7366784;19;20464;-44
2022/01/15 12:32:14;;;;;;;20.83;17.97;;;11.20;43.80;;;;;;7373361;19;20376;-44
2022/01/15 12:34:46;;;;;;;22.13;18.00;;;10.10;46.20;;;;;;7370966;19;20918;-43
2022/01/15 12:37:16;;;;;;;22.10;16.90;;;9.30;49.50;;;;;;7363139;19;20376;-43
2022/01/15 12:39:46;;;;;;;25.07;17.70;;;8.70;50.40;;;;;;7367936;19;20844;-34
2022/01/15 12:42:17;;;;;;;20.97;16.07;;;7.80;52.80;;;;;;7355602;19;20372;-34
2022/01/15 12:44:51;;;;;;;21.00;15.87;;;7.50;54.50;;;;;;7344566;19;20372;-34
2022/01/15 12:47:21;;;;;;;23.40;18.13;;;7.50;54.40;;;;;;7362758;19;20381;-35
2022/01/15 12:49:54;;;;;;;21.20;16.63;;;7.30;54.80;;;;;;7368020;19;20395;-34
2022/01/15 12:52:26;;;;;;;22.20;16.90;;;7.30;54.80;;;;;;7361986;19;20376;-34
2022/01/15 12:54:57;;;;;;;26.10;17.13;;;7.10;55.10;;;;;;7359410;19;20491;-34
2022/01/15 12:57:54;;;;;;;21.05;16.60;;;6.90;55.60;;;;;;7357286;19;20140;-34
2022/01/15 13:00:30;;;;;;;22.90;17.38;;;6.90;55.90;;;;;;7359839;19;20783;-34
2022/01/15 13:03:04;;;;;;;24.42;15.50;;;6.70;56.20;;;;;;7359648;19;20135;-34
2022/01/15 13:05:39;;;;;;;24.17;17.67;;;6.60;57.00;;;;;;7365898;19;20598;-34
2022/01/15 13:08:10;;;;;;;21.75;16.50;;;6.40;57.30;;;;;;7361292;19;21072;-34
2022/01/15 13:10:50;;;;;;;24.23;18.13;;;6.30;57.70;;;;;;7347540;19;20231;-43
2022/01/15 13:13:25;;;;;;;23.85;17.13;;;6.30;57.60;;;;;;7357486;19;20602;-43
2022/01/15 13:16:09;;;;;;;25.63;17.52;;;6.30;57.90;;;;;;7360485;19;20127;-43
2022/01/15 13:18:40;;;;;;;24.55;17.50;;;6.20;58.20;;;;;;7329569;19;20186;-43